Time;durP1;ratioP1;P1;durP2;ratioP2;P2;SDS_P1;SDS_P2;PMS_P1;PMS_P2;Temp;Humidity;BMP_temperature;BMP_pressure;BME280_temperature;BME280_humidity;BME280_pressure;Samples;Min_cycle;Max_cycle;Signal;HPM_P1;HPM_P2
2021/09/07 00:00:48;;;;;;;;;9.50;8.00;;;;;21.57;50.41;101879.53;4921607;28;45443;-78
2021/09/07 00:03:14;;;;;;;;;6.25;6.25;;;;;21.50;50.82;101886.69;4914348;28;45464;-79
2021/09/07 00:05:39;;;;;;;;;11.00;8.50;;;;;21.45;50.49;101886.47;4910634;28;45506;-80
2021/09/07 00:08:05;;;;;;;;;13.25;10.00;;;;;21.38;50.29;101883.66;4915203;28;45486;-80
2021/09/07 00:10:31;;;;;;;;;12.25;9.25;;;;;21.33;50.29;101880.72;4916794;28;45552;-81
2021/09/07 00:12:57;;;;;;;;;9.00;9.00;;;;;21.31;50.61;101881.94;4915980;28;45756;-79
2021/09/07 00:15:22;;;;;;;;;9.75;8.25;;;;;21.29;50.44;101875.91;4921482;28;46525;-80
2021/09/07 00:17:48;;;;;;;;;10.25;9.25;;;;;21.27;50.70;101876.13;4919569;28;45782;-80
2021/09/07 00:20:14;;;;;;;;;9.75;8.75;;;;;21.25;50.55;101879.00;4915316;28;45471;-80
2021/09/07 00:22:42;;;;;;;;;11.00;9.00;;;;;21.25;50.55;101879.00;4919857;28;45406;-80
2021/09/07 00:25:08;;;;;;;;;10.00;7.50;;;;;21.24;50.72;101882.72;4915800;28;46479;-80
2021/09/07 00:27:34;;;;;;;;;10.00;8.50;;;;;21.22;50.36;101879.41;4915703;28;45749;-80
2021/09/07 00:29:59;;;;;;;;;10.00;8.75;;;;;21.19;50.60;101874.41;4919854;28;45500;-80
2021/09/07 00:32:25;;;;;;;;;9.50;8.75;;;;;21.19;50.93;101882.47;4914732;28;45587;-80
2021/09/07 00:34:51;;;;;;;;;9.25;9.00;;;;;21.17;50.58;101879.16;4933093;28;45735;-80
2021/09/07 00:37:17;;;;;;;;;11.25;8.25;;;;;21.17;50.82;101875.63;4913769;28;45668;-80
2021/09/07 00:39:43;;;;;;;;;12.00;9.00;;;;;21.14;51.03;101874.16;4915456;28;45549;-80
2021/09/07 00:42:08;;;;;;;;;10.00;9.00;;;;;21.12;51.16;101873.50;4920876;28;45542;-80
2021/09/07 00:44:34;;;;;;;;;10.75;9.00;;;;;21.10;51.19;101866.66;4916946;28;46800;-80
2021/09/07 00:47:02;;;;;;;;;10.00;9.00;;;;;21.09;51.39;101864.97;4918877;28;45732;-80
2021/09/07 00:49:30;;;;;;;;;9.25;8.00;;;;;21.07;51.19;101858.97;4916896;28;46091;-80
2021/09/07 00:51:55;;;;;;;;;8.00;8.00;;;;;21.04;51.24;101863.72;4919198;28;45598;-80
2021/09/07 00:54:27;;;;;;;;;11.75;10.00;;;;;21.03;51.35;101858.53;4921922;28;46055;-80
2021/09/07 00:56:53;;;;;;;;;9.50;9.00;;;;;21.00;51.35;101859.75;4921776;28;45520;-80
2021/09/07 00:59:21;;;;;;;;;12.25;11.00;;;;;20.97;51.51;101851.25;4919080;28;45590;-80
2021/09/07 01:01:48;;;;;;;;;10.50;10.00;;;;;20.95;51.78;101850.59;4917992;28;45614;-79
2021/09/07 01:04:14;;;;;;;;;10.75;9.75;;;;;20.93;51.91;101855.31;4915600;28;46301;-80
2021/09/07 01:06:39;;;;;;;;;11.75;10.50;;;;;20.90;51.96;101848.47;4918480;28;45831;-80
2021/09/07 01:09:06;;;;;;;;;9.50;8.50;;;;;20.88;52.21;101845.16;4921711;28;45502;-80
2021/09/07 01:11:32;;;;;;;;;9.75;8.75;;;;;20.86;52.00;101849.03;4916974;28;45693;-79
2021/09/07 01:13:58;;;;;;;;;10.75;8.00;;;;;20.83;51.99;101840.34;4917646;28;46121;-80
2021/09/07 01:16:24;;;;;;;;;8.75;8.75;;;;;20.81;52.22;101839.69;4930473;28;45598;-80
2021/09/07 01:18:49;;;;;;;;;11.25;9.50;;;;;20.79;52.35;101836.34;4918476;28;45659;-80
2021/09/07 01:21:15;;;;;;;;;10.00;9.00;;;;;20.77;52.82;101841.13;4922635;28;45451;-80
2021/09/07 01:23:43;;;;;;;;;12.50;11.25;;;;;20.74;52.60;101832.59;4916105;28;45609;-80
2021/09/07 01:26:10;;;;;;;;;11.50;8.50;;;;;20.71;52.69;101836.50;4921195;28;45589;-80
2021/09/07 01:28:36;;;;;;;;;11.00;9.25;;;;;20.68;52.51;101834.19;4918224;28;45406;-81
2021/09/07 01:31:07;;;;;;;;;11.50;9.75;;;;;20.65;52.71;101831.03;4921304;28;45617;-80
2021/09/07 01:33:33;;;;;;;;;9.50;9.50;;;;;20.65;52.78;101831.03;4925755;28;45569;-80
2021/09/07 01:35:59;;;;;;;;;12.50;9.25;;;;;20.62;52.83;101826.88;4925825;28;45753;-80
2021/09/07 01:38:26;;;;;;;;;11.25;9.00;;;;;20.59;52.81;101830.78;4915941;28;45914;-80
2021/09/07 01:40:52;;;;;;;;;11.25;10.00;;;;;20.59;52.98;101824.56;4911530;28;45549;-79
2021/09/07 01:43:18;;;;;;;;;10.50;10.25;;;;;20.57;53.10;101815.88;4911578;28;47165;-79
2021/09/07 01:45:45;;;;;;;;;9.75;8.50;;;;;20.52;53.56;101819.09;4909239;28;45375;-80
2021/09/07 01:48:11;;;;;;;;;10.50;9.25;;;;;20.48;53.40;101812.44;4915299;28;45537;-80
2021/09/07 01:50:37;;;;;;;;;10.25;9.75;;;;;20.47;53.36;101815.31;4913404;28;45431;-80
2021/09/07 01:53:02;;;;;;;;;11.00;9.00;;;;;20.42;53.84;101813.19;4919146;28;55525;-80
2021/09/07 01:55:28;;;;;;;;;9.00;8.00;;;;;20.40;54.35;101816.06;4922141;28;45476;-80
2021/09/07 01:57:53;;;;;;;;;9.25;8.50;;;;;20.32;53.87;101821.53;4913051;28;45810;-80
2021/09/07 02:00:19;;;;;;;;;12.50;11.25;;;;;20.29;53.98;101821.91;4927982;28;45613;-80
2021/09/07 02:02:45;;;;;;;;;11.00;10.00;;;;;20.22;54.43;101823.69;4913207;28;45391;-80
2021/09/07 02:05:10;;;;;;;;;9.25;9.25;;;;;20.17;54.43;101826.91;4911742;28;45531;-80
2021/09/07 02:07:35;;;;;;;;;14.00;11.00;;;;;20.16;54.28;101829.81;4912343;28;45425;-79
2021/09/07 02:10:02;;;;;;;;;10.25;10.25;;;;;20.15;54.68;101826.28;4909104;28;56710;-79
2021/09/07 02:12:27;;;;;;;;;12.00;11.00;;;;;20.12;54.54;101829.31;4910786;28;45613;-79
2021/09/07 02:14:53;;;;;;;;;10.75;9.00;;;;;20.09;54.65;101828.88;4920451;28;45752;-80
2021/09/07 02:17:19;;;;;;;;;11.75;10.50;;;;;20.06;54.83;101823.91;4916516;28;45496;-79
2021/09/07 02:19:45;;;;;;;;;14.50;12.25;;;;;20.05;54.64;101824.91;4918148;28;45509;-80
2021/09/07 02:22:10;;;;;;;;;10.50;9.50;;;;;20.04;54.57;101828.59;4922444;28;45923;-80
2021/09/07 02:24:36;;;;;;;;;14.75;11.00;;;;;20.04;54.81;101824.06;4908322;28;45470;-80
2021/09/07 02:27:02;;;;;;;;;9.50;8.25;;;;;20.03;55.06;101821.56;4914789;28;45483;-80
2021/09/07 02:29:30;;;;;;;;;10.75;10.25;;;;;20.03;54.87;101824.25;4913275;28;45470;-80
2021/09/07 02:31:55;;;;;;;;;10.75;8.00;;;;;20.02;55.09;101819.91;4913131;28;45473;-80
2021/09/07 02:34:21;;;;;;;;;8.75;8.75;;;;;20.01;55.36;101818.25;4912184;28;45515;-80
2021/09/07 02:36:46;;;;;;;;;11.50;11.50;;;;;19.98;55.23;101822.97;4924977;28;45545;-80
2021/09/07 02:39:13;;;;;;;;;13.75;11.00;;;;;19.94;55.32;101824.34;4913979;28;45427;-80
2021/09/07 02:41:40;;;;;;;;;13.75;11.75;;;;;19.89;55.58;101807.16;4925312;28;47114;-80
2021/09/07 02:44:05;;;;;;;;;13.50;9.25;;;;;19.88;55.51;101802.78;4915999;28;45903;-80
2021/09/07 02:46:31;;;;;;;;;12.50;11.00;;;;;19.85;55.53;101800.47;4912760;28;45778;-80
2021/09/07 02:48:56;;;;;;;;;12.50;11.50;;;;;19.80;56.06;101801.03;4908404;28;45488;-79
2021/09/07 02:51:22;;;;;;;;;10.75;10.75;;;;;19.77;55.62;101793.34;4911674;28;47156;-80
2021/09/07 02:53:47;;;;;;;;;14.25;12.25;;;;;19.75;55.82;101798.88;4915345;28;45871;-80
2021/09/07 02:56:14;;;;;;;;;15.00;10.75;;;;;19.73;55.84;101797.41;4916498;28;45824;-79
2021/09/07 02:58:39;;;;;;;;;10.50;8.75;;;;;19.70;55.93;101789.75;4923841;28;45611;-79
2021/09/07 03:01:07;;;;;;;;;11.00;10.00;;;;;19.67;56.08;101787.41;4924152;28;46074;-78
2021/09/07 03:03:33;;;;;;;;;12.00;10.00;;;;;19.65;56.23;101786.75;4910142;28;45386;-79
2021/09/07 03:06:00;;;;;;;;;12.75;11.00;;;;;19.63;56.50;101788.78;4912665;28;45526;-79
2021/09/07 03:08:26;;;;;;;;;10.50;9.75;;;;;19.62;56.25;101777.22;4921781;28;45450;-79
2021/09/07 03:10:51;;;;;;;;;13.25;10.00;;;;;19.61;56.37;101774.72;4925004;28;46298;-79
2021/09/07 03:13:17;;;;;;;;;10.75;10.75;;;;;19.60;56.42;101775.75;4915527;28;45648;-80
2021/09/07 03:15:42;;;;;;;;;14.75;11.50;;;;;19.59;56.80;101769.56;4924408;28;45584;-80
2021/09/07 03:18:09;;;;;;;;;13.75;12.50;;;;;19.57;56.34;101776.94;4913822;28;45567;-80
2021/09/07 03:20:34;;;;;;;;;11.00;11.00;;;;;19.55;56.83;101774.44;4910858;28;46040;-80
2021/09/07 03:23:01;;;;;;;;;10.00;9.50;;;;;19.53;56.84;101779.16;4910897;28;45491;-80
2021/09/07 03:25:26;;;;;;;;;9.75;9.00;;;;;19.52;57.00;101779.34;4911701;28;45978;-80
2021/09/07 03:27:52;;;;;;;;;11.00;9.25;;;;;19.50;57.40;101779.50;4907232;28;45387;-80
2021/09/07 03:30:17;;;;;;;;;15.00;12.25;;;;;19.47;57.51;101774.53;4913711;28;45522;-80
2021/09/07 03:32:42;;;;;;;;;12.00;11.00;;;;;19.44;57.22;101777.56;4910409;28;45503;-80
2021/09/07 03:35:08;;;;;;;;;11.50;10.00;;;;;19.40;57.60;101775.44;4910959;28;45585;-80
2021/09/07 03:37:34;;;;;;;;;11.00;9.75;;;;;19.36;57.66;101768.78;4911749;28;45581;-79
2021/09/07 03:39:59;;;;;;;;;11.75;10.75;;;;;19.33;57.81;101765.44;4910051;28;46360;-79
2021/09/07 03:42:25;;;;;;;;;16.25;12.25;;;;;19.33;57.32;101759.25;4910563;28;45532;-79
2021/09/07 03:44:51;;;;;;;;;13.25;11.50;;;;;19.29;58.08;101763.31;4912608;28;45463;-79
2021/09/07 03:47:16;;;;;;;;;15.75;11.75;;;;;19.27;58.20;101757.31;4911989;28;45878;-79
2021/09/07 03:49:41;;;;;;;;;13.00;12.25;;;;;19.28;57.76;101762.47;4914182;28;46325;-80
2021/09/07 03:52:07;;;;;;;;;18.75;15.25;;;;;19.27;58.36;101760.00;4921531;28;45533;-80
2021/09/07 03:54:34;;;;;;;;;17.00;12.25;;;;;19.26;58.29;101763.66;4908659;28;45514;-80
2021/09/07 03:56:59;;;;;;;;;14.00;12.50;;;;;19.24;57.98;101757.69;4925799;28;45491;-79
2021/09/07 03:59:24;;;;;;;;;13.75;11.75;;;;;19.21;57.83;101750.81;4924767;28;49518;-79
2021/09/07 04:01:51;;;;;;;;;13.50;12.50;;;;;19.24;58.05;101755.00;4919369;28;59222;-80
2021/09/07 04:04:17;;;;;;;;;17.00;15.00;;;;;19.20;58.25;101751.00;4921092;28;45670;-79
2021/09/07 04:06:42;;;;;;;;;15.00;11.00;;;;;19.16;58.21;101750.53;4910438;28;45393;-79
2021/09/07 04:09:08;;;;;;;;;14.25;12.75;;;;;19.17;58.52;101762.09;4914258;28;45539;-79
2021/09/07 04:11:33;;;;;;;;;14.00;12.25;;;;;19.12;58.54;101759.97;4910295;28;45470;-79
2021/09/07 04:13:58;;;;;;;;;14.50;13.50;;;;;19.09;58.76;101768.38;4909743;28;45618;-79
2021/09/07 04:16:24;;;;;;;;;14.25;12.00;;;;;19.05;58.88;101762.50;4922939;28;45609;-79
2021/09/07 04:18:49;;;;;;;;;17.00;15.00;;;;;19.02;59.15;101765.56;4908810;28;46180;-80
2021/09/07 04:21:16;;;;;;;;;17.00;12.25;;;;;19.00;59.20;101769.44;4915627;28;45799;-79
2021/09/07 04:23:41;;;;;;;;;14.00;12.25;;;;;18.99;59.10;101767.75;4912852;28;45534;-74
2021/09/07 04:26:06;;;;;;;;;14.75;14.75;;;;;19.00;59.11;101775.63;4912902;28;45539;-82
2021/09/07 04:28:32;;;;;;;;;15.00;13.75;;;;;18.97;59.28;101778.66;4913046;28;45962;-81
2021/09/07 04:30:57;;;;;;;;;17.25;16.25;;;;;18.95;59.52;101779.84;4911102;28;45467;-81
2021/09/07 04:33:23;;;;;;;;;16.00;14.00;;;;;18.92;59.47;101786.41;4912865;28;45494;-81
2021/09/07 04:35:48;;;;;;;;;15.00;13.75;;;;;18.91;59.49;101787.41;4915353;28;46455;-81
2021/09/07 04:38:13;;;;;;;;;14.50;13.75;;;;;18.85;60.12;101786.28;4912453;28;45979;-81
2021/09/07 04:40:39;;;;;;;;;16.25;14.50;;;;;18.87;60.45;101791.47;4912804;28;45475;-81
2021/09/07 04:43:04;;;;;;;;;16.00;14.50;;;;;18.85;60.26;101798.84;4910946;28;45422;-81
2021/09/07 04:45:29;;;;;;;;;16.75;14.50;;;;;18.84;60.21;101798.00;4911530;28;45479;-81
2021/09/07 04:47:55;;;;;;;;;17.50;16.00;;;;;18.84;60.34;101798.00;4916180;28;46228;-81
2021/09/07 04:50:20;;;;;;;;;17.75;16.25;;;;;18.83;60.28;101798.19;4913007;28;46827;-80
2021/09/07 04:52:46;;;;;;;;;16.00;12.50;;;;;18.82;60.18;101799.22;4913488;28;45506;-81
2021/09/07 04:55:11;;;;;;;;;14.50;13.50;;;;;18.84;60.11;101803.38;4912319;28;45452;-80
2021/09/07 04:57:37;;;;;;;;;16.00;15.75;;;;;18.81;60.28;101802.88;4910513;28;46269;-81
2021/09/07 05:00:03;;;;;;;;;16.00;16.00;;;;;18.78;60.21;101792.53;4929370;28;45451;-81
2021/09/07 05:02:33;;;;;;;;;19.50;14.50;;;;;18.76;60.41;101797.22;4916498;28;45430;-81
2021/09/07 05:05:03;;;;;;;;;15.25;13.50;;;;;18.75;60.01;101803.56;4918127;28;45574;-81
2021/09/07 05:07:28;;;;;;;;;16.00;15.00;;;;;18.74;60.13;101797.34;4913136;28;46671;-82
2021/09/07 05:09:54;;;;;;;;;15.50;14.25;;;;;18.74;60.24;101794.69;4923701;28;45439;-81
2021/09/07 05:12:20;;;;;;;;;18.25;14.75;;;;;18.75;60.18;101795.53;4912908;28;45556;-81
2021/09/07 05:14:45;;;;;;;;;16.00;15.75;;;;;18.76;60.33;101805.25;4919639;28;45434;-81
2021/09/07 05:17:11;;;;;;;;;17.25;16.00;;;;;18.76;60.31;101811.44;4918622;28;46055;-81
2021/09/07 05:19:36;;;;;;;;;18.25;15.75;;;;;18.75;60.26;101804.41;4911843;28;45577;-81
2021/09/07 05:22:02;;;;;;;;;16.00;15.00;;;;;18.75;60.41;101807.06;4912435;28;45406;-81
2021/09/07 05:24:27;;;;;;;;;16.75;14.50;;;;;18.76;60.87;101810.63;4914015;28;46389;-81
2021/09/07 05:26:53;;;;;;;;;20.75;13.50;;;;;18.76;60.86;101805.25;4917219;28;45589;-81
2021/09/07 05:29:18;;;;;;;;;18.00;17.25;;;;;18.76;60.63;101811.44;4912006;28;45368;-81
2021/09/07 05:31:44;;;;;;;;;15.25;13.50;;;;;18.75;60.87;101811.59;4912923;28;45520;-82
2021/09/07 05:34:09;;;;;;;;;13.50;13.00;;;;;18.78;60.44;101805.91;4910244;28;45555;-82
2021/09/07 05:36:35;;;;;;;;;18.50;16.00;;;;;18.79;60.38;101805.75;4911751;28;45354;-82
2021/09/07 05:39:00;;;;;;;;;18.50;16.75;;;;;18.84;60.70;101813.22;4925358;28;45482;-82
2021/09/07 05:41:25;;;;;;;;;15.75;14.75;;;;;18.88;60.63;101804.66;4920770;28;46097;-82
2021/09/07 05:43:51;;;;;;;;;19.25;17.25;;;;;18.90;60.24;101805.31;4921160;28;45546;-83
2021/09/07 05:46:16;;;;;;;;;13.75;13.00;;;;;18.98;60.09;101809.78;4939518;28;45448;-82
2021/09/07 05:48:41;;;;;;;;;19.50;18.50;;;;;19.03;60.08;101803.91;4919895;28;45784;-83
2021/09/07 05:51:07;;;;;;;;;16.00;14.00;;;;;19.10;59.78;101816.38;4922900;28;45573;-82
2021/09/07 05:53:32;;;;;;;;;16.75;15.75;;;;;19.19;59.36;101816.31;4934005;28;45479;-83
2021/09/07 05:55:57;;;;;;;;;16.00;14.25;;;;;19.21;59.27;101814.28;4923821;28;45431;-82
2021/09/07 05:58:23;;;;;;;;;16.00;15.50;;;;;19.28;59.44;101817.91;4933448;28;45587;-83
2021/09/07 06:00:48;;;;;;;;;18.75;16.00;;;;;19.35;59.48;101824.22;4929812;28;45522;-80
2021/09/07 06:03:13;;;;;;;;;19.25;17.50;;;;;19.42;59.34;101827.03;4918658;28;45787;-85
2021/09/07 06:05:39;;;;;;;;;16.75;14.75;;;;;19.47;59.03;101830.81;4918775;28;46251;-76
2021/09/07 06:08:05;;;;;;;;;19.25;17.25;;;;;19.55;58.88;101822.69;4932128;28;45569;-86
2021/09/07 06:10:30;;;;;;;;;19.00;15.75;;;;;19.60;58.91;101822.16;4930970;28;45890;-86
2021/09/07 06:12:56;;;;;;;;;18.75;16.00;;;;;19.65;58.56;101826.97;4938363;28;45484;-79
2021/09/07 06:15:21;;;;;;;;;17.50;15.50;;;;;19.73;58.50;101819.72;4927118;28;46487;-81
2021/09/07 06:17:47;;;;;;;;;20.75;19.25;;;;;19.80;58.82;101817.13;4925032;28;45586;-82
2021/09/07 06:20:12;;;;;;;;;19.50;16.25;;;;;19.83;58.36;101808.72;4934835;28;45633;-83
2021/09/07 06:22:38;;;;;;;;;18.00;14.75;;;;;19.82;58.75;101807.03;4935747;28;46678;-82
2021/09/07 06:25:05;;;;;;;;;19.00;15.00;;;;;19.86;58.94;101810.22;4940446;28;45640;-82
2021/09/07 06:27:31;;;;;;;;;17.25;14.75;;;;;19.90;58.31;101808.78;4923293;28;45933;-83
2021/09/07 06:29:56;;;;;;;;;17.75;16.00;;;;;19.96;58.18;101803.53;4929349;28;45397;-82
2021/09/07 06:32:21;;;;;;;;;16.50;16.25;;;;;20.02;58.59;101807.31;4933386;28;45694;-82
2021/09/07 06:34:47;;;;;;;;;21.25;17.25;;;;;20.08;57.88;101816.47;4932577;28;45448;-82
2021/09/07 06:37:12;;;;;;;;;17.00;17.00;;;;;20.13;58.87;101808.72;4930983;28;45632;-82
2021/09/07 06:39:38;;;;;;;;;18.00;16.50;;;;;20.14;58.28;101807.69;4918149;28;45904;-82
2021/09/07 06:42:05;;;;;;;;;19.75;16.50;;;;;20.22;58.30;101807.56;4922846;28;45562;-83
2021/09/07 06:44:30;;;;;;;;;19.25;18.25;;;;;20.30;57.64;101812.84;4927673;28;45705;-82
2021/09/07 06:46:56;;;;;;;;;18.25;17.00;;;;;20.43;57.62;101822.09;4925387;28;45881;-79
2021/09/07 06:49:21;;;;;;;;;16.00;16.00;;;;;20.73;57.01;101825.56;4942988;28;45568;-79
2021/09/07 06:51:46;;;;;;;;;22.00;19.50;;;;;20.97;56.19;101819.81;4906606;28;45791;-85
2021/09/07 06:54:12;;;;;;;;;21.50;16.50;;;;;21.07;56.24;101819.50;4940784;28;46135;-85
2021/09/07 06:56:37;;;;;;;;;19.25;18.00;;;;;21.23;55.79;101827.28;4915324;28;45512;-85
2021/09/07 06:59:03;;;;;;;;;20.50;17.75;;;;;21.81;55.35;101827.16;4914366;28;45742;-85
2021/09/07 07:01:28;;;;;;;;;18.00;15.50;;;;;22.66;53.85;101816.16;4917376;28;45506;-84
2021/09/07 07:03:54;;;;;;;;;19.00;17.00;;;;;22.87;52.12;101826.78;4918723;28;46312;-83
2021/09/07 07:06:19;;;;;;;;;19.25;17.50;;;;;22.65;52.36;101817.16;4925000;28;45681;-84
2021/09/07 07:08:44;;;;;;;;;22.50;17.25;;;;;22.56;52.54;101821.09;4916345;28;45799;-79
2021/09/07 07:11:10;;;;;;;;;19.25;16.50;;;;;22.51;52.36;101819.84;4915057;28;45960;-80
2021/09/07 07:13:36;;;;;;;;;19.75;15.75;;;;;22.48;52.69;101825.63;4908147;28;45527;-78
2021/09/07 07:16:01;;;;;;;;;19.50;17.25;;;;;22.44;52.35;101818.97;4915831;28;45673;-79
2021/09/07 07:18:26;;;;;;;;;21.75;18.00;;;;;22.38;52.27;101827.03;4908171;28;45413;-79
2021/09/07 07:20:52;;;;;;;;;20.25;18.50;;;;;22.39;52.41;101826.84;4918988;28;45443;-80
2021/09/07 07:23:17;;;;;;;;;15.00;12.25;;;;;22.54;52.63;101832.88;4911952;28;46570;-79
2021/09/07 07:25:43;;;;;;;;;19.25;17.00;;;;;23.11;52.28;101836.16;4908835;28;45499;-79
2021/09/07 07:28:09;;;;;;;;;19.50;14.75;;;;;23.87;50.63;101840.31;4909464;28;45861;-79
2021/09/07 07:30:34;;;;;;;;;20.75;18.50;;;;;24.24;48.29;101841.44;4921737;28;45413;-79
2021/09/07 07:32:59;;;;;;;;;15.75;14.25;;;;;24.20;47.52;101844.78;4910279;28;45630;-79
2021/09/07 07:35:28;;;;;;;;;20.00;17.00;;;;;24.06;47.63;101844.00;4909832;28;45441;-79
2021/09/07 07:37:53;;;;;;;;;16.50;14.75;;;;;23.97;48.75;101846.09;4914644;28;45622;-80
2021/09/07 07:40:18;;;;;;;;;20.25;17.00;;;;;24.09;47.97;101846.28;4913378;28;45458;-79
2021/09/07 07:42:44;;;;;;;;;17.00;15.75;;;;;24.28;48.69;101857.22;4914096;28;47088;-79
2021/09/07 07:45:10;;;;;;;;;15.00;13.25;;;;;25.37;48.58;101840.00;4918336;28;45932;-79
2021/09/07 07:47:36;;;;;;;;;15.25;15.25;;;;;26.32;44.42;101836.91;4917390;28;45532;-79
2021/09/07 07:50:02;;;;;;;;;14.75;13.25;;;;;26.64;43.98;101838.63;4920660;28;45585;-79
2021/09/07 07:52:27;;;;;;;;;17.75;16.00;;;;;27.09;43.83;101833.56;4916633;28;46257;-79
2021/09/07 07:54:52;;;;;;;;;16.75;15.00;;;;;29.12;41.75;101838.13;4918103;28;45649;-80
2021/09/07 07:57:19;;;;;;;;;17.25;14.75;;;;;31.53;39.69;101832.78;4922621;28;46045;-80
2021/09/07 07:59:46;;;;;;;;;17.75;14.75;;;;;35.03;35.35;101834.94;4919426;28;45664;-79
2021/09/07 08:02:12;;;;;;;;;16.25;15.00;;;;;38.14;29.63;101836.94;4918203;28;45570;-80
2021/09/07 08:04:38;;;;;;;;;19.00;13.50;;;;;40.56;27.87;101837.63;4918258;28;45919;-79
2021/09/07 08:07:04;;;;;;;;;15.00;14.00;;;;;42.63;26.54;101842.50;4916449;28;45917;-80
2021/09/07 08:09:31;;;;;;;;;15.00;14.50;;;;;44.42;24.65;101842.81;4915535;28;45588;-80
2021/09/07 08:11:57;;;;;;;;;15.00;11.00;;;;;45.75;22.35;101856.59;4920771;28;46292;-80
2021/09/07 08:14:22;;;;;;;;;13.00;12.00;;;;;46.89;21.11;101853.41;4921075;28;45805;-80
2021/09/07 08:16:47;;;;;;;;;14.75;12.75;;;;;47.53;20.27;101853.69;4920877;28;45493;-85
2021/09/07 08:19:13;;;;;;;;;16.75;13.00;;;;;48.28;19.35;101861.53;4917133;28;45911;-80
2021/09/07 08:21:39;;;;;;;;;1863.67;1862.67;;;;;49.05;18.54;101859.94;4927810;28;47033;-81
2021/09/07 08:24:04;;;;;;;;;10.50;10.50;;;;;49.91;17.83;101857.75;4919355;28;45360;-79
2021/09/07 08:26:30;;;;;;;;;12.75;11.00;;;;;50.54;16.76;101849.97;4917706;28;45964;-80
2021/09/07 08:28:55;;;;;;;;;13.25;11.50;;;;;51.05;16.27;101856.47;4919843;28;45720;-76
2021/09/07 08:31:20;;;;;;;;;14.75;13.00;;;;;51.50;15.55;101854.03;4915898;28;45490;-80
2021/09/07 08:33:46;;;;;;;;;13.00;13.00;;;;;51.89;16.47;101848.28;4919014;28;45558;-78
2021/09/07 08:36:11;;;;;;;;;14.50;12.75;;;;;52.20;14.60;101852.16;4920422;28;45399;-81
2021/09/07 08:38:36;;;;;;;;;13.75;13.50;;;;;52.81;14.92;101851.00;4921143;28;46567;-76
2021/09/07 08:41:02;;;;;;;;;10.00;8.50;;;;;53.63;14.55;101850.22;4918037;28;45786;-78
2021/09/07 08:43:28;;;;;;;;;11.00;10.75;;;;;54.07;13.46;101850.50;4916611;28;45498;-76
2021/09/07 08:45:55;;;;;;;;;11.50;11.50;;;;;54.26;12.16;101857.50;4917662;28;45665;-77
2021/09/07 08:48:22;;;;;;;;;13.50;11.25;;;;;54.35;12.31;101840.81;4920692;28;45463;-78
2021/09/07 08:50:48;;;;;;;;;13.50;11.50;;;;;54.20;11.50;101836.59;4918151;28;47376;-76
2021/09/07 08:53:14;;;;;;;;;12.00;11.50;;;;;53.80;12.36;101841.97;4919193;28;45628;-76
2021/09/07 08:55:40;;;;;;;;;13.00;11.25;;;;;53.61;11.79;101847.00;4916752;28;45739;-77
2021/09/07 08:58:05;;;;;;;;;13.25;13.25;;;;;53.18;12.17;101847.47;4918203;28;45882;-76
2021/09/07 09:00:34;;;;;;;;;12.00;11.00;;;;;53.14;12.56;101845.88;4925856;28;46047;-77
2021/09/07 09:03:11;;;;;;;;;11.00;11.00;;;;;53.45;10.78;101841.94;4900999;28;45584;-77
2021/09/07 09:05:41;;;;;;;;;10.50;10.50;;;;;53.32;12.04;101842.88;4911587;28;45644;-77
2021/09/07 09:08:11;;;;;;;;;14.00;11.00;;;;;53.18;10.92;101846.66;4921136;28;45696;-77
2021/09/07 09:10:37;;;;;;;;;11.25;10.00;;;;;53.37;11.64;101848.06;4921195;28;45587;-77
2021/09/07 09:13:08;;;;;;;;;11.25;11.00;;;;;53.62;10.10;101845.78;4910128;28;45792;-77
2021/09/07 09:15:33;;;;;;;;;11.75;10.25;;;;;53.31;11.16;101844.91;4923254;28;50070;-77
2021/09/07 09:18:10;;;;;;;;;10.25;9.50;;;;;53.24;12.10;101844.97;4914912;28;45401;-77
2021/09/07 09:20:37;;;;;;;;;9.75;9.75;;;;;53.31;9.77;101859.00;4913695;28;46137;-77
2021/09/07 09:23:05;;;;;;;;;9.75;9.25;;;;;52.21;10.57;101842.50;4912452;28;45633;-77
2021/09/07 09:25:34;;;;;;;;;10.00;9.25;;;;;51.83;10.78;101847.88;4912774;28;45517;-77
2021/09/07 09:28:06;;;;;;;;;9.75;9.75;;;;;52.28;10.78;101844.47;4909272;28;45685;-77
2021/09/07 09:30:41;;;;;;;;;8.00;8.00;;;;;52.11;10.66;101840.56;4910621;28;46981;-77
2021/09/07 09:33:07;;;;;;;;;10.00;10.00;;;;;51.23;10.81;101840.38;4914563;28;45459;-77
2021/09/07 09:35:45;;;;;;;;;9.25;8.50;;;;;50.91;10.92;101846.00;4924539;28;45665;-77
2021/09/07 09:38:10;;;;;;;;;10.00;8.75;;;;;50.91;11.45;101846.78;4916847;28;45574;-77
2021/09/07 09:40:36;;;;;;;;;9.00;9.00;;;;;51.31;10.65;101841.16;4911180;28;45630;-77
2021/09/07 09:43:38;;;;;;;;;9.75;9.75;;;;;51.12;11.07;101831.16;4908916;28;45423;-77
2021/09/07 09:46:27;;;;;;;;;9.50;9.00;;;;;50.71;11.57;101832.34;4923720;28;47515;-77
2021/09/07 09:49:10;;;;;;;;;8.75;8.75;;;;;49.67;11.13;101822.72;4908791;28;45428;-77
2021/09/07 09:51:35;;;;;;;;;9.00;7.75;;;;;48.27;11.29;101824.28;4924680;28;47162;-80
2021/09/07 09:54:01;;;;;;;;;10.00;9.00;;;;;46.99;13.33;101821.22;4913808;28;45564;-80
2021/09/07 09:56:27;;;;;;;;;10.50;9.00;;;;;46.07;13.37;101823.81;4911413;28;45888;-80
2021/09/07 09:58:57;;;;;;;;;9.50;8.50;;;;;45.21;13.47;101822.66;4923825;28;45840;-79
2021/09/07 10:01:22;;;;;;;;;8.75;8.75;;;;;44.26;14.79;101813.25;4976544;28;45815;-79
2021/09/07 10:03:49;;;;;;;;;8.75;8.50;;;;;43.33;15.00;101814.78;4931703;28;45760;-80
2021/09/07 10:06:18;;;;;;;;;10.75;9.00;;;;;42.64;16.55;101807.22;4938076;28;45519;-78
2021/09/07 10:08:44;;;;;;;;;9.25;9.25;;;;;42.20;16.77;101806.78;4954762;28;45388;-82
2021/09/07 10:11:15;;;;;;;;;11.00;10.50;;;;;41.75;16.50;101797.13;4923344;28;46408;-78
2021/09/07 10:13:46;;;;;;;;;16.50;13.50;;;;;41.16;16.61;101806.22;4940259;28;45449;-79
2021/09/07 10:16:41;;;;;;;;;8.75;8.50;;;;;40.32;16.87;101802.94;4939864;28;45795;-81
2021/09/07 10:19:12;;;;;;;;;9.50;9.00;;;;;39.77;17.97;101792.44;4923768;28;45605;-81
2021/09/07 10:24:19;;;;;;;;;10.00;10.00;;;;;39.32;17.90;101801.72;4937970;28;45441;-80
2021/09/07 10:26:45;;;;;;;;;6.25;6.25;;;;;38.94;18.47;101784.78;4957792;28;45952;-80
2021/09/07 10:29:15;;;;;;;;;8.00;8.00;;;;;38.69;18.42;101778.78;4964597;28;45998;-79
2021/09/07 10:31:52;;;;;;;;;8.25;7.25;;;;;38.35;18.64;101779.31;4928949;28;46249;-80
2021/09/07 10:34:24;;;;;;;;;9.50;9.50;;;;;38.24;19.32;101772.41;4940656;28;45609;-83
2021/09/07 10:37:05;;;;;;;;;5.75;5.75;;;;;38.45;18.38;101764.47;4937746;28;45570;-82
2021/09/07 10:39:34;;;;;;;;;9.00;9.00;;;;;38.50;18.84;101762.44;4926277;28;45425;-82
2021/09/07 10:42:02;;;;;;;;;11.00;9.25;;;;;38.84;18.71;101758.22;4954292;28;46151;-82
2021/09/07 10:44:38;;;;;;;;;9.50;9.25;;;;;38.70;18.80;101760.25;4922629;28;45814;-83
2021/09/07 10:47:08;;;;;;;;;11.00;11.00;;;;;38.54;19.58;101757.06;4935125;28;45452;-82
2021/09/07 10:49:37;;;;;;;;;9.75;9.00;;;;;38.63;19.05;101766.25;4922345;28;45522;-81
2021/09/07 10:52:12;;;;;;;;;7.25;5.00;;;;;38.69;19.16;101755.88;4938438;28;46462;-82
2021/09/07 10:54:48;;;;;;;;;10.00;9.75;;;;;38.67;18.51;101744.31;5006724;28;47140;-80
2021/09/07 10:57:32;;;;;;;;;10.50;10.00;;;;;38.23;19.32;101743.19;4928162;28;45502;-81
2021/09/07 11:00:00;;;;;;;;;10.25;9.75;;;;;37.77;19.62;101731.25;4928658;28;45557;-81
2021/09/07 11:02:33;;;;;;;;;8.00;7.75;;;;;37.63;20.12;101739.53;4913769;28;46355;-80
2021/09/07 11:05:01;;;;;;;;;12.00;10.25;;;;;37.66;20.54;101729.81;4914728;28;45570;-80
2021/09/07 11:07:32;;;;;;;;;10.00;9.25;;;;;37.76;20.34;101726.88;4921940;28;45562;-80
2021/09/07 11:09:58;;;;;;;;;8.75;7.50;;;;;38.09;20.39;101707.38;4919899;28;45698;-80
2021/09/07 11:12:32;;;;;;;;;12.50;11.50;;;;;38.31;20.32;101705.75;4909770;28;47066;-80
2021/09/07 11:15:06;;;;;;;;;9.25;9.25;;;;;38.04;19.94;101710.25;4926508;28;45486;-81